createdAt,value
2023-01-30T00:00:43.552Z,39.17
2023-01-30T00:03:01.134Z,36.78
2023-01-30T00:05:18.016Z,38.85
2023-01-30T00:07:36.068Z,40.53
2023-01-30T00:09:53.533Z,39.78
2023-01-30T00:12:11.642Z,40.08
2023-01-30T00:14:28.641Z,38.67
2023-01-30T00:16:45.727Z,43.60
2023-01-30T00:19:03.055Z,40.72
2023-01-30T00:21:20.353Z,42.30
2023-01-30T00:23:40.172Z,43.22
2023-01-30T00:25:57.368Z,39.25
2023-01-30T00:28:15.720Z,39.85
2023-01-30T00:30:33.088Z,38.35
2023-01-30T00:32:51.290Z,38.05
2023-01-30T00:35:08.451Z,37.38
2023-01-30T00:37:28.107Z,41.45
2023-01-30T00:39:45.307Z,38.92
2023-01-30T00:42:02.430Z,39.75
2023-01-30T00:44:19.552Z,41.10
2023-01-30T00:46:38.707Z,39.42
2023-01-30T00:48:55.651Z,39.58
2023-01-30T00:51:12.765Z,40.17
2023-01-30T00:53:29.937Z,39.05
2023-01-30T00:55:46.930Z,41.15
2023-01-30T00:58:04.142Z,36.20
2023-01-30T01:00:21.426Z,39.47
2023-01-30T01:02:38.613Z,38.60
2023-01-30T01:04:56.026Z,37.15
2023-01-30T01:07:15.798Z,35.05
2023-01-30T01:09:32.885Z,34.72
2023-01-30T01:11:49.943Z,33.60
2023-01-30T01:14:07.040Z,32.00
2023-01-30T01:16:24.505Z,33.70
2023-01-30T01:18:42.814Z,33.25
2023-01-30T01:21:00.408Z,34.17
2023-01-30T01:23:18.782Z,32.63
2023-01-30T01:25:35.952Z,33.08
2023-01-30T01:27:53.751Z,33.78
2023-01-30T01:30:10.925Z,33.28
2023-01-30T01:32:29.281Z,30.63
2023-01-30T01:34:46.719Z,32.38
2023-01-30T01:37:04.057Z,30.67
2023-01-30T01:39:21.110Z,33.53
2023-01-30T01:41:38.246Z,30.58
2023-01-30T01:43:55.787Z,33.17
2023-01-30T01:46:12.956Z,35.38
2023-01-30T01:48:30.891Z,35.28
2023-01-30T01:50:49.015Z,35.42
2023-01-30T01:53:06.084Z,33.63
2023-01-30T01:55:23.415Z,32.80
2023-01-30T01:57:40.527Z,36.38
2023-01-30T01:59:58.829Z,37.55
2023-01-30T02:02:16.231Z,39.17
2023-01-30T02:04:36.052Z,38.90
2023-01-30T02:06:53.135Z,37.88
2023-01-30T02:09:10.538Z,34.78
2023-01-30T02:11:27.472Z,38.50
2023-01-30T02:13:44.408Z,36.13
2023-01-30T02:16:01.523Z,36.72
2023-01-30T02:18:18.917Z,39.03
2023-01-30T02:20:37.136Z,38.40
2023-01-30T02:22:54.253Z,35.38
2023-01-30T02:25:11.296Z,37.75
2023-01-30T02:27:28.626Z,34.08
2023-01-30T02:29:45.730Z,33.03
2023-01-30T02:32:02.874Z,35.67
2023-01-30T02:34:21.197Z,31.45
2023-01-30T02:36:38.433Z,31.90
2023-01-30T02:38:55.782Z,29.13
2023-01-30T02:41:12.927Z,30.55
2023-01-30T02:43:32.261Z,30.45
2023-01-30T02:45:49.289Z,32.42
2023-01-30T02:48:06.278Z,30.67
2023-01-30T02:50:23.297Z,32.88
2023-01-30T02:52:42.929Z,27.75
2023-01-30T02:55:00.157Z,33.45
2023-01-30T02:57:17.209Z,32.40
2023-01-30T02:59:34.830Z,31.23
2023-01-30T03:01:51.908Z,31.08
2023-01-30T03:04:09.124Z,33.38
2023-01-30T03:06:26.260Z,31.90
2023-01-30T03:08:43.492Z,32.72
2023-01-30T03:11:00.731Z,34.40
2023-01-30T03:13:18.007Z,29.08
2023-01-30T03:15:35.356Z,32.13
2023-01-30T03:17:52.667Z,31.33
2023-01-30T03:20:11.719Z,30.60
2023-01-30T03:22:28.710Z,36.55
2023-01-30T03:24:45.785Z,34.63
2023-01-30T03:27:03.119Z,31.55
2023-01-30T03:29:20.390Z,29.17
2023-01-30T03:31:37.728Z,33.63
2023-01-30T03:33:54.846Z,31.23
2023-01-30T03:36:12.779Z,30.33
2023-01-30T03:38:30.077Z,27.20
2023-01-30T03:40:47.353Z,28.30
2023-01-30T03:43:04.673Z,25.10
2023-01-30T03:45:21.708Z,28.42
2023-01-30T03:47:39.004Z,25.83
2023-01-30T03:49:56.012Z,27.33
2023-01-30T03:52:13.526Z,27.55
2023-01-30T03:54:30.575Z,27.35
2023-01-30T03:56:47.802Z,29.45
2023-01-30T03:59:05.118Z,28.98
2023-01-30T04:01:22.239Z,27.20
2023-01-30T04:03:39.297Z,28.02
2023-01-30T04:05:56.815Z,26.38
2023-01-30T04:08:15.121Z,27.75
2023-01-30T04:10:32.348Z,28.42
2023-01-30T04:12:50.453Z,30.08
2023-01-30T04:15:07.416Z,29.00
2023-01-30T04:17:26.470Z,29.17
2023-01-30T04:19:43.764Z,27.90
2023-01-30T04:22:00.832Z,27.58
2023-01-30T04:24:17.834Z,27.40
2023-01-30T04:26:36.033Z,29.00
2023-01-30T04:28:53.619Z,27.15
2023-01-30T04:31:13.022Z,28.98
2023-01-30T04:33:30.335Z,25.95
2023-01-30T04:35:47.370Z,29.33
2023-01-30T04:38:04.542Z,28.27
2023-01-30T04:40:21.765Z,28.50
2023-01-30T04:42:38.760Z,28.88
2023-01-30T04:44:55.783Z,30.73
2023-01-30T04:47:13.054Z,25.00
2023-01-30T04:49:30.326Z,26.45
2023-01-30T04:51:47.398Z,29.52
2023-01-30T04:54:04.690Z,27.05
2023-01-30T04:56:21.773Z,26.88
2023-01-30T04:58:38.992Z,26.95
2023-01-30T05:00:56.095Z,25.10
2023-01-30T05:03:13.549Z,26.48
2023-01-30T05:05:30.595Z,24.38
2023-01-30T05:07:47.600Z,23.45
2023-01-30T05:10:04.861Z,24.15
2023-01-30T05:12:22.108Z,22.75
2023-01-30T05:14:39.357Z,20.92
2023-01-30T05:16:56.444Z,21.33
2023-01-30T05:19:13.904Z,21.65
2023-01-30T05:21:31.847Z,18.35
2023-01-30T05:23:48.822Z,18.02
2023-01-30T05:26:06.886Z,17.30
2023-01-30T05:28:23.952Z,16.95
2023-01-30T05:30:42.241Z,18.10
2023-01-30T05:33:00.173Z,17.38
2023-01-30T05:35:18.756Z,16.77
2023-01-30T05:37:35.864Z,17.58
2023-01-30T05:39:53.872Z,14.52
2023-01-30T05:42:11.135Z,13.63
2023-01-30T05:44:28.423Z,13.65
2023-01-30T05:46:46.397Z,14.35
2023-01-30T05:49:04.621Z,14.27
2023-01-30T05:51:21.938Z,12.05
2023-01-30T05:53:39.020Z,14.15
2023-01-30T05:55:56.103Z,14.15
2023-01-30T05:58:13.059Z,15.55
2023-01-30T06:00:30.447Z,11.77
2023-01-30T06:02:48.760Z,14.63
2023-01-30T06:05:05.807Z,11.35
2023-01-30T06:07:23.872Z,13.40
2023-01-30T06:09:41.890Z,12.50
2023-01-30T06:11:58.868Z,14.82
2023-01-30T06:14:15.799Z,14.70
2023-01-30T06:16:32.883Z,13.30
2023-01-30T06:18:50.369Z,14.55
2023-01-30T06:21:07.405Z,14.50
2023-01-30T06:23:24.712Z,14.55
2023-01-30T06:25:41.783Z,14.68
2023-01-30T06:27:59.033Z,14.32
2023-01-30T06:30:16.068Z,16.17
2023-01-30T06:32:33.048Z,17.00
2023-01-30T06:34:51.153Z,15.88
2023-01-30T06:37:08.500Z,15.35
2023-01-30T06:39:25.764Z,13.88
2023-01-30T06:41:42.800Z,14.10
2023-01-30T06:44:00.998Z,14.25
2023-01-30T06:46:18.335Z,15.75
2023-01-30T06:48:35.801Z,14.40
2023-01-30T06:50:53.141Z,13.68
2023-01-30T06:53:10.528Z,13.18
2023-01-30T06:55:27.702Z,14.40
2023-01-30T06:57:44.977Z,12.68
2023-01-30T07:00:02.300Z,10.77
2023-01-30T07:02:19.362Z,12.15
2023-01-30T07:04:36.653Z,12.07
2023-01-30T07:06:54.012Z,11.60
2023-01-30T07:09:11.040Z,11.80
2023-01-30T07:11:28.349Z,9.32
2023-01-30T07:13:45.448Z,11.50
2023-01-30T07:16:02.513Z,10.20
2023-01-30T07:18:19.447Z,11.23
2023-01-30T07:20:36.520Z,10.35
2023-01-30T07:22:53.928Z,10.02
2023-01-30T07:25:11.222Z,9.35
2023-01-30T07:27:28.541Z,10.60
2023-01-30T07:29:45.523Z,12.18
2023-01-30T07:32:02.878Z,9.23
2023-01-30T07:34:19.921Z,9.25
2023-01-30T07:36:36.963Z,8.63
2023-01-30T07:38:53.873Z,9.02
2023-01-30T07:41:11.109Z,8.98
2023-01-30T07:43:28.042Z,8.35
2023-01-30T07:45:45.124Z,7.85
2023-01-30T07:48:02.014Z,8.30
2023-01-30T07:50:19.404Z,7.85
2023-01-30T07:52:36.574Z,7.80
2023-01-30T07:54:54.888Z,6.18
2023-01-30T07:57:12.179Z,6.95
2023-01-30T07:59:29.283Z,5.97
2023-01-30T08:01:46.515Z,6.22
2023-01-30T08:04:03.605Z,5.53
2023-01-30T08:06:20.898Z,5.47
2023-01-30T08:08:37.957Z,5.97
2023-01-30T08:10:54.966Z,5.00
2023-01-30T08:13:12.081Z,5.90
2023-01-30T08:15:29.094Z,6.68
2023-01-30T08:17:46.367Z,4.55
2023-01-30T08:20:03.654Z,5.32
2023-01-30T08:22:20.944Z,4.63
2023-01-30T08:24:38.002Z,4.82
2023-01-30T08:26:55.077Z,5.60
2023-01-30T08:29:12.292Z,3.95
2023-01-30T08:31:30.307Z,4.55
2023-01-30T08:33:47.313Z,4.63
2023-01-30T08:36:04.391Z,4.45
2023-01-30T08:38:21.423Z,3.97
2023-01-30T08:40:38.689Z,4.63
2023-01-30T08:42:56.907Z,3.83
2023-01-30T08:45:13.806Z,4.78
2023-01-30T08:47:30.833Z,3.83
2023-01-30T08:49:47.857Z,3.40
2023-01-30T08:52:04.896Z,4.65
2023-01-30T08:54:21.974Z,5.72
2023-01-30T08:56:38.967Z,3.97
2023-01-30T08:58:55.919Z,3.90
2023-01-30T09:01:12.888Z,3.40
2023-01-30T09:03:30.924Z,4.05
2023-01-30T09:05:47.865Z,3.78
2023-01-30T09:08:04.747Z,3.97
2023-01-30T09:10:21.895Z,3.70
2023-01-30T09:12:38.996Z,3.00
2023-01-30T09:14:56.008Z,4.50
2023-01-30T09:17:15.443Z,4.15
2023-01-30T09:19:32.474Z,5.05
2023-01-30T09:21:50.765Z,4.53
2023-01-30T09:24:08.967Z,3.33
2023-01-30T09:26:26.922Z,2.80
2023-01-30T09:28:43.779Z,2.55
2023-01-30T09:31:00.878Z,15.50
2023-01-30T09:33:17.977Z,8.68
2023-01-30T09:35:35.861Z,10.45
2023-01-30T09:37:52.859Z,14.05
2023-01-30T09:40:09.849Z,21.83
2023-01-30T09:42:26.883Z,26.17
2023-01-30T09:44:44.174Z,11.27
2023-01-30T09:47:01.155Z,7.18
2023-01-30T09:49:18.384Z,4.38
2023-01-30T09:51:36.645Z,3.97
2023-01-30T09:53:53.661Z,4.53
2023-01-30T09:56:10.890Z,3.38
2023-01-30T09:58:28.290Z,5.43
2023-01-30T10:00:46.566Z,2.80
2023-01-30T10:03:03.572Z,2.97
2023-01-30T10:05:20.631Z,3.47
2023-01-30T10:07:37.696Z,3.13
2023-01-30T10:09:54.750Z,2.90
2023-01-30T10:12:11.776Z,3.97
2023-01-30T10:14:28.876Z,12.65
2023-01-30T10:16:46.178Z,6.57
2023-01-30T10:19:03.083Z,11.90
2023-01-30T10:21:20.000Z,4.78
2023-01-30T10:23:37.059Z,4.07
2023-01-30T10:25:54.294Z,4.05
2023-01-30T10:28:11.316Z,5.50
2023-01-30T10:30:28.723Z,7.07
2023-01-30T10:32:46.023Z,47.40
2023-01-30T10:35:03.031Z,60.17
2023-01-30T10:37:20.068Z,13.70
2023-01-30T10:39:40.842Z,9.52
2023-01-30T10:42:03.715Z,6.32
2023-01-30T10:44:20.747Z,5.85
2023-01-30T10:46:37.849Z,4.22
2023-01-30T10:48:56.504Z,6.13
2023-01-30T10:51:13.551Z,24.50
2023-01-30T10:53:31.591Z,20.27
2023-01-30T10:55:48.835Z,5.22
2023-01-30T10:58:06.036Z,4.63
2023-01-30T11:00:22.969Z,5.30
2023-01-30T11:02:40.097Z,5.03
2023-01-30T11:04:57.375Z,3.70
2023-01-30T11:07:15.607Z,4.47
2023-01-30T11:09:32.579Z,3.85
2023-01-30T11:11:50.823Z,4.03
2023-01-30T11:14:07.818Z,4.97
2023-01-30T11:16:25.126Z,6.72
2023-01-30T11:19:18.216Z,4.55
2023-01-30T11:21:19.397Z,7.60
2023-01-30T11:23:36.395Z,7.55
2023-01-30T11:26:10.150Z,5.85
2023-01-30T11:28:28.561Z,4.18
2023-01-30T11:30:46.937Z,4.55
2023-01-30T11:33:04.953Z,6.20
2023-01-30T11:35:22.091Z,5.53
2023-01-30T11:37:39.031Z,3.67
2023-01-30T11:39:56.387Z,3.15
2023-01-30T11:42:13.671Z,12.13
2023-01-30T11:44:30.674Z,7.53
2023-01-30T11:46:47.976Z,10.77
2023-01-30T11:51:31.644Z,7.95
2023-01-30T11:51:42.155Z,5.25
2023-01-30T11:53:59.401Z,5.13
2023-01-30T11:56:16.688Z,4.78
2023-01-30T11:58:33.943Z,10.00
2023-01-30T12:00:51.195Z,9.10
2023-01-30T12:03:08.166Z,7.90
2023-01-30T12:05:25.586Z,8.05
2023-01-30T12:07:42.456Z,7.93
2023-01-30T12:09:59.485Z,5.05
2023-01-30T12:12:16.558Z,4.40
2023-01-30T12:14:33.490Z,6.20
2023-01-30T12:16:50.591Z,5.88
2023-01-30T12:19:08.591Z,7.28
2023-01-30T12:21:25.829Z,6.80
2023-01-30T12:23:43.133Z,5.13
2023-01-30T12:26:00.442Z,10.15
2023-01-30T12:28:17.484Z,6.43
2023-01-30T12:30:34.440Z,9.60
2023-01-30T12:32:51.708Z,6.05
2023-01-30T12:35:08.680Z,13.98
2023-01-30T12:37:25.721Z,7.82
2023-01-30T12:39:42.785Z,7.53
2023-01-30T12:41:59.988Z,16.92
2023-01-30T12:44:17.095Z,12.20
2023-01-30T12:46:34.213Z,8.32
2023-01-30T12:49:07.649Z,6.03
2023-01-30T12:51:25.402Z,4.70
2023-01-30T12:53:42.447Z,19.48
2023-01-30T12:55:59.414Z,10.02
2023-01-30T12:58:16.448Z,9.27
2023-01-30T13:00:33.687Z,6.97
2023-01-30T13:02:51.677Z,18.40
2023-01-30T13:05:08.804Z,21.52
2023-01-30T13:07:26.746Z,18.67
2023-01-30T13:09:43.760Z,16.83
2023-01-30T13:12:01.800Z,12.10
2023-01-30T13:14:18.834Z,11.82
2023-01-30T13:16:36.162Z,6.13
2023-01-30T13:18:53.459Z,6.55
2023-01-30T13:21:10.405Z,6.07
2023-01-30T13:23:27.447Z,4.88
2023-01-30T13:25:44.647Z,6.55
2023-01-30T13:28:01.712Z,5.38
2023-01-30T13:30:19.134Z,6.20
2023-01-30T13:32:36.360Z,6.43
2023-01-30T13:34:53.597Z,4.18
2023-01-30T13:37:10.928Z,5.20
2023-01-30T13:39:27.996Z,4.65
2023-01-30T13:41:45.081Z,5.10
2023-01-30T13:44:03.899Z,6.90
2023-01-30T13:46:21.030Z,8.65
2023-01-30T13:48:39.391Z,31.83
2023-01-30T13:50:56.736Z,27.17
2023-01-30T13:53:14.097Z,13.02
2023-01-30T13:55:31.335Z,10.45
2023-01-30T13:57:48.295Z,7.65
2023-01-30T14:00:05.370Z,7.68
2023-01-30T14:02:22.542Z,15.05
2023-01-30T14:04:40.872Z,8.00
2023-01-30T14:06:57.968Z,8.23
2023-01-30T14:09:14.967Z,8.57
2023-01-30T14:11:34.110Z,15.48
2023-01-30T14:13:51.640Z,19.65
2023-01-30T14:16:08.790Z,11.40
2023-01-30T14:18:25.816Z,12.18
2023-01-30T14:20:42.815Z,8.55
2023-01-30T14:23:00.124Z,9.50
2023-01-30T14:25:17.401Z,9.60
2023-01-30T14:27:34.703Z,7.13
2023-01-30T14:29:51.894Z,7.63
2023-01-30T14:32:08.986Z,9.52
2023-01-30T14:34:26.398Z,10.10
2023-01-30T14:36:43.691Z,10.15
2023-01-30T14:39:00.997Z,25.40
2023-01-30T14:41:18.869Z,15.90
2023-01-30T14:43:35.929Z,24.40
2023-01-30T14:45:53.178Z,13.45
2023-01-30T14:48:10.239Z,14.13
2023-01-30T14:50:27.447Z,19.00
2023-01-30T14:52:44.774Z,9.70
2023-01-30T14:55:02.072Z,11.30
2023-01-30T14:57:19.330Z,10.57
2023-01-30T14:59:36.369Z,9.88
2023-01-30T15:01:53.469Z,8.77
2023-01-30T15:04:10.908Z,12.38
2023-01-30T15:06:28.169Z,13.77
2023-01-30T15:08:46.460Z,17.00
2023-01-30T15:11:03.545Z,10.88
2023-01-30T15:13:20.585Z,18.98
2023-01-30T15:15:37.520Z,16.40
2023-01-30T15:18:06.967Z,15.13
2023-01-30T15:20:26.504Z,14.38
2023-01-30T15:22:44.445Z,10.88
2023-01-30T15:25:01.358Z,11.15
2023-01-30T15:27:18.426Z,10.68
2023-01-30T15:29:36.794Z,20.55
2023-01-30T15:31:54.149Z,23.70
2023-01-30T15:34:12.235Z,24.02
2023-01-30T15:36:29.568Z,17.92
2023-01-30T15:38:46.856Z,11.82
2023-01-30T15:41:03.845Z,11.10
2023-01-30T15:43:20.782Z,12.70
2023-01-30T15:45:37.832Z,10.35
2023-01-30T15:47:55.130Z,13.90
2023-01-30T15:50:13.104Z,12.68
2023-01-30T15:52:30.135Z,10.60
2023-01-30T15:54:49.545Z,16.77
2023-01-30T15:57:06.901Z,12.07
2023-01-30T15:59:23.924Z,17.10
2023-01-30T16:01:41.196Z,19.80
2023-01-30T16:03:58.437Z,17.48
2023-01-30T16:06:15.782Z,11.60
2023-01-30T16:08:32.789Z,8.38
2023-01-30T16:10:50.100Z,11.00
2023-01-30T16:13:07.395Z,11.30
2023-01-30T16:15:24.842Z,11.32
2023-01-30T16:17:41.740Z,13.77
2023-01-30T16:19:59.167Z,11.13
2023-01-30T16:22:16.553Z,12.38
2023-01-30T16:24:34.122Z,9.80
2023-01-30T16:26:51.119Z,9.38
2023-01-30T16:29:09.286Z,11.73
2023-01-30T16:31:26.878Z,12.75
2023-01-30T16:33:43.916Z,16.58
2023-01-30T16:36:01.042Z,11.55
2023-01-30T16:38:20.854Z,15.70
2023-01-30T16:40:38.267Z,12.02
2023-01-30T16:42:55.295Z,11.20
2023-01-30T16:45:13.446Z,10.18
2023-01-30T16:47:34.637Z,13.43
2023-01-30T16:49:52.965Z,13.05
2023-01-30T16:52:10.383Z,10.38
2023-01-30T16:54:27.890Z,14.23
2023-01-30T16:56:44.855Z,10.48
2023-01-30T16:59:01.863Z,10.98
2023-01-30T17:01:19.353Z,12.90
2023-01-30T17:03:36.516Z,12.20
2023-01-30T17:05:53.872Z,12.30
2023-01-30T17:08:10.944Z,10.82
2023-01-30T17:10:28.043Z,13.38
2023-01-30T17:12:45.288Z,11.27
2023-01-30T17:15:03.372Z,14.77
2023-01-30T17:17:20.311Z,11.80
2023-01-30T17:19:38.621Z,13.60
2023-01-30T17:21:55.907Z,15.63
2023-01-30T17:24:12.916Z,14.95
2023-01-30T17:26:30.894Z,11.98
2023-01-30T17:28:47.975Z,12.82
2023-01-30T17:31:05.066Z,16.17
2023-01-30T17:33:22.460Z,13.07
2023-01-30T17:35:39.536Z,13.05
2023-01-30T17:38:05.398Z,13.75
2023-01-30T17:40:23.396Z,15.35
2023-01-30T17:42:40.542Z,18.33
2023-01-30T17:44:58.585Z,18.50
2023-01-30T17:47:15.950Z,11.70
2023-01-30T17:49:33.171Z,12.13
2023-01-30T17:51:50.169Z,14.35
2023-01-30T17:54:07.207Z,13.32
2023-01-30T17:56:24.280Z,13.52
2023-01-30T17:58:42.316Z,11.02
2023-01-30T18:00:59.689Z,11.52
2023-01-30T18:03:16.665Z,17.33
2023-01-30T18:05:33.797Z,11.50
2023-01-30T18:07:50.900Z,13.52
2023-01-30T18:10:08.144Z,15.35
2023-01-30T18:12:26.195Z,18.40
2023-01-30T18:14:43.338Z,15.13
2023-01-30T18:17:00.806Z,20.35
2023-01-30T18:19:17.747Z,18.83
2023-01-30T18:21:34.689Z,17.17
2023-01-30T18:23:51.770Z,13.90
2023-01-30T18:26:08.652Z,12.18
2023-01-30T18:28:25.691Z,14.50
2023-01-30T18:30:42.974Z,14.77
2023-01-30T18:33:00.321Z,12.80
2023-01-30T18:35:18.669Z,15.13
2023-01-30T18:37:36.017Z,15.45
2023-01-30T18:39:53.346Z,19.65
2023-01-30T18:42:10.491Z,14.50
2023-01-30T18:44:27.779Z,14.32
2023-01-30T18:46:44.851Z,11.75
2023-01-30T18:49:01.929Z,12.38
2023-01-30T18:51:19.301Z,9.68
2023-01-30T18:53:36.647Z,12.50
2023-01-30T18:55:53.727Z,19.40
2023-01-30T18:58:10.732Z,17.38
2023-01-30T19:00:29.038Z,16.52
2023-01-30T19:02:46.488Z,16.40
2023-01-30T19:05:03.884Z,17.02
2023-01-30T19:07:21.235Z,12.43
2023-01-30T19:09:39.249Z,17.33
2023-01-30T19:11:56.260Z,16.38
2023-01-30T19:14:13.208Z,13.80
2023-01-30T19:16:30.274Z,17.30
2023-01-30T19:18:47.411Z,10.65
2023-01-30T19:21:04.373Z,16.65
2023-01-30T19:23:21.400Z,12.95
2023-01-30T19:25:38.707Z,16.67
2023-01-30T19:27:56.864Z,12.90
2023-01-30T19:30:14.985Z,16.48
2023-01-30T19:32:32.410Z,19.90
2023-01-30T19:34:50.810Z,15.82
2023-01-30T19:37:08.144Z,16.67
2023-01-30T19:39:25.122Z,18.90
2023-01-30T19:41:43.415Z,20.60
2023-01-30T19:44:00.719Z,18.83
2023-01-30T19:46:17.842Z,12.52
2023-01-30T19:48:35.129Z,16.88
2023-01-30T19:50:52.409Z,13.80
2023-01-30T19:53:09.743Z,20.73
2023-01-30T19:55:27.663Z,20.80
2023-01-30T19:57:44.931Z,21.95
2023-01-30T20:00:02.879Z,17.30
2023-01-30T20:02:19.957Z,18.77
2023-01-30T20:04:37.212Z,15.80
2023-01-30T20:06:54.228Z,15.70
2023-01-30T20:09:11.542Z,18.15
2023-01-30T20:11:28.855Z,17.67
2023-01-30T20:13:46.156Z,17.45
2023-01-30T20:16:06.390Z,13.85
2023-01-30T20:18:23.772Z,22.45
2023-01-30T20:20:41.848Z,18.13
2023-01-30T20:22:58.831Z,18.80
2023-01-30T20:25:16.104Z,11.98
2023-01-30T20:27:33.324Z,13.90
2023-01-30T20:29:50.297Z,20.23
2023-01-30T20:32:07.500Z,11.43
2023-01-30T20:34:24.647Z,16.67
2023-01-30T20:36:41.759Z,16.38
2023-01-30T20:38:58.859Z,22.15
2023-01-30T20:41:15.902Z,17.88
2023-01-30T20:43:33.193Z,16.55
2023-01-30T20:45:51.217Z,17.23
2023-01-30T20:48:08.267Z,11.05
2023-01-30T20:50:26.326Z,18.52
2023-01-30T20:52:43.668Z,15.48
2023-01-30T20:55:00.812Z,22.67
2023-01-30T20:57:17.833Z,12.38
2023-01-30T20:59:35.226Z,21.00
2023-01-30T21:01:52.558Z,16.08
2023-01-30T21:04:09.715Z,13.00
2023-01-30T21:06:41.699Z,18.30
2023-01-30T21:09:02.491Z,14.18
2023-01-30T21:11:19.797Z,15.27
2023-01-30T21:13:37.015Z,12.95
2023-01-30T21:15:54.078Z,13.73
2023-01-30T21:18:11.374Z,14.98
2023-01-30T21:20:28.303Z,13.07
2023-01-30T21:22:45.669Z,18.17
2023-01-30T21:25:02.591Z,15.27
2023-01-30T21:27:19.922Z,12.07
2023-01-30T21:29:37.261Z,13.35
2023-01-30T21:31:55.568Z,18.05
2023-01-30T21:34:12.750Z,15.90
2023-01-30T21:36:29.824Z,16.88
2023-01-30T21:38:46.749Z,17.17
2023-01-30T21:41:04.085Z,14.77
2023-01-30T21:43:21.167Z,13.70
2023-01-30T21:45:39.081Z,11.93
2023-01-30T21:47:56.794Z,14.68
2023-01-30T21:50:13.767Z,15.98
2023-01-30T21:52:30.862Z,16.27
2023-01-30T21:54:47.887Z,13.85
2023-01-30T21:57:05.231Z,14.45
2023-01-30T21:59:22.216Z,15.63
2023-01-30T22:01:39.366Z,16.10
2023-01-30T22:03:56.615Z,13.50
2023-01-30T22:06:13.721Z,16.95
2023-01-30T22:08:30.705Z,13.75
2023-01-30T22:10:48.816Z,17.10
2023-01-30T22:13:06.230Z,14.90
2023-01-30T22:15:23.156Z,12.27
2023-01-30T22:17:40.137Z,14.30
2023-01-30T22:19:57.193Z,17.73
2023-01-30T22:22:14.508Z,18.30
2023-01-30T22:24:31.604Z,14.48
2023-01-30T22:26:48.676Z,18.77
2023-01-30T22:29:06.616Z,19.95
2023-01-30T22:31:23.873Z,17.10
2023-01-30T22:33:41.043Z,15.60
2023-01-30T22:35:58.108Z,17.73
2023-01-30T22:38:15.449Z,16.33
2023-01-30T22:40:32.782Z,19.88
2023-01-30T22:42:50.143Z,15.15
2023-01-30T22:45:07.148Z,16.30
2023-01-30T22:47:24.372Z,20.55
2023-01-30T22:49:41.421Z,12.75
2023-01-30T22:51:58.483Z,16.65
2023-01-30T22:54:15.803Z,17.50
2023-01-30T22:56:32.873Z,21.42
2023-01-30T22:58:50.246Z,19.08
2023-01-30T23:01:07.572Z,17.60
2023-01-30T23:03:24.681Z,20.35
2023-01-30T23:05:41.731Z,18.02
2023-01-30T23:07:58.819Z,20.83
2023-01-30T23:10:17.113Z,11.63
2023-01-30T23:12:34.440Z,16.55
2023-01-30T23:14:51.643Z,17.17
2023-01-30T23:17:08.923Z,22.98
2023-01-30T23:19:25.995Z,14.32
2023-01-30T23:21:43.308Z,20.48
2023-01-30T23:24:00.334Z,17.63
2023-01-30T23:26:17.344Z,18.05
2023-01-30T23:28:35.457Z,16.65
2023-01-30T23:30:52.485Z,20.75
2023-01-30T23:33:09.816Z,16.35
2023-01-30T23:35:26.928Z,13.60
2023-01-30T23:37:43.852Z,13.55
2023-01-30T23:40:02.184Z,16.13
2023-01-30T23:42:19.607Z,13.65
2023-01-30T23:44:37.572Z,17.83
2023-01-30T23:46:54.634Z,19.88
2023-01-30T23:49:11.630Z,18.80
2023-01-30T23:51:28.798Z,11.90
2023-01-30T23:53:45.943Z,17.20
2023-01-30T23:56:02.963Z,20.85
2023-01-30T23:58:20.422Z,18.20
